עמוד ראשי
METAR-TAF:

METAR-TAF

שדות תעופה :

Pohnpei, מיקרונזיה

קו רוחב: 06-59N, קו אורך: 158-12E, גובה: 2מטר

תצפית מזג אוויר נוכחית

הדו"ח נערך לפני 1 שעות ו 16דקות, בשעה 10:55 UTC
רוח 4קשר מכיוון צפון-מזרח
טמפרטורת 27 צלסיוס
לחות 89%
לחץ 1012 hPa
ראות: 24.1קילומטר
עננים בינוניים בגובה 1700רגל , קומולוס מיגדלי.
מעונן בגובה 13000רגל

METAR: PTPN 151055Z 05004KT 15SM BKN017TCU OVC130 27/25 A2988 RMK TCU ALQDS LAST

זמן: 23:11 (12:11 UTC)

תחזית

הדו"ח נערך לפני 6 שעות ו 46דקות, בשעה 05:25 UTC
תחזית בתוקף מ 15 ב 06 UTC עד 16 ב 06 UTC
רוח 6קשר מכיוון צפון-מזרח
ראות: 10קילומטר
עננים פזורים בגובה 1800רגל
עננים פזורים בגובה 12000רגל
ממטרים במרחב,

TAF: PTPN 150525Z 1506/1606 05006KT P6SM VCSH SCT018 SCT120

תצפיות ותחזיות מזג אוויר לגבי יותר מ- 4,000 שדות תעופה ברחבי העולם. דוחות METAR ו- TAF.

התחנות הזמינות מסומנות בנקודות צהובות ואדומות על גבי המפה.

העבר את העכבר לנקודה הצבעונית על מנת לראות את שם התחנה.

לאחר מכן, לחץ כדי לראות את תוכן ואת תחזיות מזג האוויר.

כדי לשנות את המפה: לחץ על הכפתורים הירוקים עם הפלוס השחור כדי להתקרב; על הכפתור הירוק עם המקף כדי להתרחק; או בחיצים הירוקים למפות סמוכות.


METAR-TAF: